sensor_id;sensor_type;location;lat;lon;timestamp;temperature;humidity
9810;DHT22;4944;52.514;13.192;2024-01-25T00:02:26;8.50;99.90
9810;DHT22;4944;52.514;13.192;2024-01-25T00:04:54;8.50;99.90
9810;DHT22;4944;52.514;13.192;2024-01-25T00:07:21;8.50;99.90
9810;DHT22;4944;52.514;13.192;2024-01-25T00:09:48;8.50;99.90
9810;DHT22;4944;52.514;13.192;2024-01-25T00:12:15;8.50;99.90
9810;DHT22;4944;52.514;13.192;2024-01-25T00:14:42;8.50;99.90
9810;DHT22;4944;52.514;13.192;2024-01-25T00:17:09;8.40;99.90
9810;DHT22;4944;52.514;13.192;2024-01-25T00:19:36;8.50;99.90
9810;DHT22;4944;52.514;13.192;2024-01-25T00:22:04;8.50;99.90
9810;DHT22;4944;52.514;13.192;2024-01-25T00:24:31;8.40;99.90
9810;DHT22;4944;52.514;13.192;2024-01-25T00:26:59;8.50;99.90
9810;DHT22;4944;52.514;13.192;2024-01-25T00:29:26;8.40;99.90
9810;DHT22;4944;52.514;13.192;2024-01-25T00:31:53;8.50;99.90
9810;DHT22;4944;52.514;13.192;2024-01-25T00:34:20;8.50;99.90
9810;DHT22;4944;52.514;13.192;2024-01-25T00:36:47;8.50;99.90
9810;DHT22;4944;52.514;13.192;2024-01-25T00:39:16;8.50;99.90
9810;DHT22;4944;52.514;13.192;2024-01-25T00:41:44;8.50;99.90
9810;DHT22;4944;52.514;13.192;2024-01-25T00:44:12;8.50;99.90
9810;DHT22;4944;52.514;13.192;2024-01-25T00:46:40;8.50;99.90
9810;DHT22;4944;52.514;13.192;2024-01-25T00:49:07;8.50;99.90
9810;DHT22;4944;52.514;13.192;2024-01-25T00:51:34;8.60;99.90
9810;DHT22;4944;52.514;13.192;2024-01-25T00:54:03;8.60;99.90
9810;DHT22;4944;52.514;13.192;2024-01-25T00:56:32;8.60;99.90
9810;DHT22;4944;52.514;13.192;2024-01-25T00:58:59;8.60;99.90
9810;DHT22;4944;52.514;13.192;2024-01-25T01:01:26;8.60;99.90
9810;DHT22;4944;52.514;13.192;2024-01-25T01:03:55;8.50;99.90
9810;DHT22;4944;52.514;13.192;2024-01-25T01:06:25;8.50;99.90
9810;DHT22;4944;52.514;13.192;2024-01-25T01:08:52;8.60;99.90
9810;DHT22;4944;52.514;13.192;2024-01-25T01:11:19;8.60;99.90
9810;DHT22;4944;52.514;13.192;2024-01-25T01:13:48;8.60;99.90
9810;DHT22;4944;52.514;13.192;2024-01-25T01:16:15;8.60;99.90
9810;DHT22;4944;52.514;13.192;2024-01-25T01:18:42;8.60;99.90
9810;DHT22;4944;52.514;13.192;2024-01-25T01:21:08;8.60;99.90
9810;DHT22;4944;52.514;13.192;2024-01-25T01:23:35;8.60;99.90
9810;DHT22;4944;52.514;13.192;2024-01-25T01:26:04;8.60;99.90
9810;DHT22;4944;52.514;13.192;2024-01-25T01:28:31;8.50;99.90
9810;DHT22;4944;52.514;13.192;2024-01-25T01:30:59;8.60;99.90
9810;DHT22;4944;52.514;13.192;2024-01-25T01:33:26;8.60;99.90
9810;DHT22;4944;52.514;13.192;2024-01-25T01:35:53;8.60;99.90
9810;DHT22;4944;52.514;13.192;2024-01-25T01:38:20;8.60;99.90
9810;DHT22;4944;52.514;13.192;2024-01-25T01:40:46;8.50;99.90
9810;DHT22;4944;52.514;13.192;2024-01-25T01:43:18;8.50;99.90
9810;DHT22;4944;52.514;13.192;2024-01-25T01:45:45;8.50;99.90
9810;DHT22;4944;52.514;13.192;2024-01-25T01:48:13;8.50;99.90
9810;DHT22;4944;52.514;13.192;2024-01-25T01:50:40;8.50;99.90
9810;DHT22;4944;52.514;13.192;2024-01-25T01:53:07;8.50;99.90
9810;DHT22;4944;52.514;13.192;2024-01-25T01:55:34;8.50;99.90
9810;DHT22;4944;52.514;13.192;2024-01-25T01:58:02;8.50;99.90
9810;DHT22;4944;52.514;13.192;2024-01-25T02:00:30;8.50;99.90
9810;DHT22;4944;52.514;13.192;2024-01-25T02:02:57;8.50;99.90
9810;DHT22;4944;52.514;13.192;2024-01-25T02:05:25;8.40;99.90
9810;DHT22;4944;52.514;13.192;2024-01-25T02:07:55;8.40;99.90
9810;DHT22;4944;52.514;13.192;2024-01-25T02:10:22;8.40;99.90
9810;DHT22;4944;52.514;13.192;2024-01-25T02:12:49;8.40;99.90
9810;DHT22;4944;52.514;13.192;2024-01-25T02:15:16;8.40;99.90
9810;DHT22;4944;52.514;13.192;2024-01-25T02:17:43;8.40;99.90
9810;DHT22;4944;52.514;13.192;2024-01-25T02:20:10;8.40;99.90
9810;DHT22;4944;52.514;13.192;2024-01-25T02:22:38;8.40;99.90
9810;DHT22;4944;52.514;13.192;2024-01-25T02:25:06;8.40;99.90
9810;DHT22;4944;52.514;13.192;2024-01-25T02:27:33;8.40;99.90
9810;DHT22;4944;52.514;13.192;2024-01-25T02:30:05;8.30;99.90
9810;DHT22;4944;52.514;13.192;2024-01-25T02:32:32;8.30;99.90
9810;DHT22;4944;52.514;13.192;2024-01-25T02:34:59;8.30;99.90
9810;DHT22;4944;52.514;13.192;2024-01-25T02:37:27;8.30;99.90
9810;DHT22;4944;52.514;13.192;2024-01-25T02:39:55;8.30;99.90
9810;DHT22;4944;52.514;13.192;2024-01-25T02:42:22;8.30;99.90
9810;DHT22;4944;52.514;13.192;2024-01-25T02:44:49;8.20;99.90
9810;DHT22;4944;52.514;13.192;2024-01-25T02:47:15;8.20;99.90
9810;DHT22;4944;52.514;13.192;2024-01-25T02:49:42;8.30;99.90
9810;DHT22;4944;52.514;13.192;2024-01-25T02:52:09;8.20;99.90
9810;DHT22;4944;52.514;13.192;2024-01-25T02:54:36;8.20;99.90
9810;DHT22;4944;52.514;13.192;2024-01-25T02:57:05;8.20;99.90
9810;DHT22;4944;52.514;13.192;2024-01-25T02:59:31;8.30;99.90
9810;DHT22;4944;52.514;13.192;2024-01-25T03:01:58;8.20;99.90
9810;DHT22;4944;52.514;13.192;2024-01-25T03:04:25;8.20;99.90
9810;DHT22;4944;52.514;13.192;2024-01-25T03:06:52;8.20;99.90
9810;DHT22;4944;52.514;13.192;2024-01-25T03:09:19;8.20;99.90
9810;DHT22;4944;52.514;13.192;2024-01-25T03:11:46;8.20;99.90
9810;DHT22;4944;52.514;13.192;2024-01-25T03:14:15;8.20;99.90
9810;DHT22;4944;52.514;13.192;2024-01-25T03:16:42;8.20;99.90
9810;DHT22;4944;52.514;13.192;2024-01-25T03:19:10;8.20;99.90
9810;DHT22;4944;52.514;13.192;2024-01-25T03:21:37;8.20;99.90
9810;DHT22;4944;52.514;13.192;2024-01-25T03:24:05;8.20;99.90
9810;DHT22;4944;52.514;13.192;2024-01-25T03:26:32;8.20;99.90
9810;DHT22;4944;52.514;13.192;2024-01-25T03:28:59;8.20;99.90
9810;DHT22;4944;52.514;13.192;2024-01-25T03:31:27;8.20;99.90
9810;DHT22;4944;52.514;13.192;2024-01-25T03:33:54;8.20;99.90
9810;DHT22;4944;52.514;13.192;2024-01-25T03:36:21;8.20;99.90
9810;DHT22;4944;52.514;13.192;2024-01-25T03:38:48;8.20;99.90
9810;DHT22;4944;52.514;13.192;2024-01-25T03:41:15;8.20;99.90
9810;DHT22;4944;52.514;13.192;2024-01-25T03:43:42;8.20;99.90
9810;DHT22;4944;52.514;13.192;2024-01-25T03:46:10;8.20;99.90
9810;DHT22;4944;52.514;13.192;2024-01-25T03:48:39;8.10;99.90
9810;DHT22;4944;52.514;13.192;2024-01-25T03:51:06;8.10;99.90
9810;DHT22;4944;52.514;13.192;2024-01-25T03:53:33;8.10;99.90
9810;DHT22;4944;52.514;13.192;2024-01-25T03:56:02;8.10;99.90
9810;DHT22;4944;52.514;13.192;2024-01-25T03:58:29;8.10;99.90
9810;DHT22;4944;52.514;13.192;2024-01-25T04:00:56;8.10;99.90
9810;DHT22;4944;52.514;13.192;2024-01-25T04:03:25;8.00;99.90
9810;DHT22;4944;52.514;13.192;2024-01-25T04:05:53;8.10;99.90
9810;DHT22;4944;52.514;13.192;2024-01-25T04:08:20;8.10;99.90
9810;DHT22;4944;52.514;13.192;2024-01-25T04:10:47;8.00;99.90
9810;DHT22;4944;52.514;13.192;2024-01-25T04:13:14;8.00;99.90
9810;DHT22;4944;52.514;13.192;2024-01-25T04:15:41;8.00;99.90
9810;DHT22;4944;52.514;13.192;2024-01-25T04:18:08;8.00;99.90
9810;DHT22;4944;52.514;13.192;2024-01-25T04:20:35;8.00;99.90
9810;DHT22;4944;52.514;13.192;2024-01-25T04:23:03;8.00;99.90
9810;DHT22;4944;52.514;13.192;2024-01-25T04:25:30;8.00;99.90
9810;DHT22;4944;52.514;13.192;2024-01-25T04:27:57;8.00;99.90
9810;DHT22;4944;52.514;13.192;2024-01-25T04:30:24;8.00;99.90
9810;DHT22;4944;52.514;13.192;2024-01-25T04:32:51;8.00;99.90
9810;DHT22;4944;52.514;13.192;2024-01-25T04:35:18;8.00;99.90
9810;DHT22;4944;52.514;13.192;2024-01-25T04:37:45;8.00;99.90
9810;DHT22;4944;52.514;13.192;2024-01-25T04:40:13;8.00;99.90
9810;DHT22;4944;52.514;13.192;2024-01-25T04:42:40;7.90;99.90
9810;DHT22;4944;52.514;13.192;2024-01-25T04:45:07;8.00;99.90
9810;DHT22;4944;52.514;13.192;2024-01-25T04:47:34;8.00;99.90
9810;DHT22;4944;52.514;13.192;2024-01-25T04:50:01;8.00;99.90
9810;DHT22;4944;52.514;13.192;2024-01-25T04:52:28;8.00;99.90
9810;DHT22;4944;52.514;13.192;2024-01-25T04:54:55;8.00;99.90
9810;DHT22;4944;52.514;13.192;2024-01-25T04:57:23;8.00;99.90
9810;DHT22;4944;52.514;13.192;2024-01-25T04:59:50;8.00;99.90
9810;DHT22;4944;52.514;13.192;2024-01-25T05:02:17;8.00;99.90
9810;DHT22;4944;52.514;13.192;2024-01-25T05:04:44;7.90;99.90
9810;DHT22;4944;52.514;13.192;2024-01-25T05:07:11;7.90;99.90
9810;DHT22;4944;52.514;13.192;2024-01-25T05:09:38;7.90;99.90
9810;DHT22;4944;52.514;13.192;2024-01-25T05:12:05;7.90;99.90
9810;DHT22;4944;52.514;13.192;2024-01-25T05:14:34;7.90;99.90
9810;DHT22;4944;52.514;13.192;2024-01-25T05:17:01;7.90;99.90
9810;DHT22;4944;52.514;13.192;2024-01-25T05:19:27;7.90;99.90
9810;DHT22;4944;52.514;13.192;2024-01-25T05:21:55;7.90;99.90
9810;DHT22;4944;52.514;13.192;2024-01-25T05:24:22;7.90;99.90
9810;DHT22;4944;52.514;13.192;2024-01-25T05:26:49;7.90;99.90
9810;DHT22;4944;52.514;13.192;2024-01-25T05:29:16;8.00;99.90
9810;DHT22;4944;52.514;13.192;2024-01-25T05:31:44;8.00;99.90
9810;DHT22;4944;52.514;13.192;2024-01-25T05:34:11;8.00;99.90
9810;DHT22;4944;52.514;13.192;2024-01-25T05:36:38;8.00;99.90
9810;DHT22;4944;52.514;13.192;2024-01-25T05:39:05;8.00;99.90
9810;DHT22;4944;52.514;13.192;2024-01-25T05:41:33;7.90;99.90
9810;DHT22;4944;52.514;13.192;2024-01-25T05:44:00;7.90;99.90
9810;DHT22;4944;52.514;13.192;2024-01-25T05:46:27;7.90;99.90
9810;DHT22;4944;52.514;13.192;2024-01-25T05:48:56;7.90;99.90
9810;DHT22;4944;52.514;13.192;2024-01-25T05:51:23;7.90;99.90
9810;DHT22;4944;52.514;13.192;2024-01-25T05:53:50;7.90;99.90
9810;DHT22;4944;52.514;13.192;2024-01-25T05:56:16;7.90;99.90
9810;DHT22;4944;52.514;13.192;2024-01-25T05:58:43;7.90;99.90
9810;DHT22;4944;52.514;13.192;2024-01-25T06:01:10;7.90;99.90
9810;DHT22;4944;52.514;13.192;2024-01-25T06:03:37;7.90;99.90
9810;DHT22;4944;52.514;13.192;2024-01-25T06:06:05;7.90;99.90
9810;DHT22;4944;52.514;13.192;2024-01-25T06:08:33;7.90;99.90
9810;DHT22;4944;52.514;13.192;2024-01-25T06:11:00;7.90;99.90
9810;DHT22;4944;52.514;13.192;2024-01-25T06:13:27;7.90;99.90
9810;DHT22;4944;52.514;13.192;2024-01-25T06:15:54;7.90;99.90
9810;DHT22;4944;52.514;13.192;2024-01-25T06:18:21;7.90;99.90
9810;DHT22;4944;52.514;13.192;2024-01-25T06:20:48;7.90;99.90
9810;DHT22;4944;52.514;13.192;2024-01-25T06:23:17;7.90;99.90
9810;DHT22;4944;52.514;13.192;2024-01-25T06:25:44;7.90;99.90
9810;DHT22;4944;52.514;13.192;2024-01-25T06:28:11;7.90;99.90
9810;DHT22;4944;52.514;13.192;2024-01-25T06:30:38;7.90;99.90
9810;DHT22;4944;52.514;13.192;2024-01-25T06:33:05;7.90;99.90
9810;DHT22;4944;52.514;13.192;2024-01-25T06:35:32;7.90;99.90
9810;DHT22;4944;52.514;13.192;2024-01-25T06:37:59;7.90;99.90
9810;DHT22;4944;52.514;13.192;2024-01-25T06:40:27;7.90;99.90
9810;DHT22;4944;52.514;13.192;2024-01-25T06:42:54;7.90;99.90
9810;DHT22;4944;52.514;13.192;2024-01-25T06:45:21;7.80;99.90
9810;DHT22;4944;52.514;13.192;2024-01-25T06:47:48;7.90;99.90
9810;DHT22;4944;52.514;13.192;2024-01-25T06:50:15;7.90;99.90
9810;DHT22;4944;52.514;13.192;2024-01-25T06:52:42;7.90;99.90
9810;DHT22;4944;52.514;13.192;2024-01-25T06:55:09;7.90;99.90
9810;DHT22;4944;52.514;13.192;2024-01-25T06:57:38;7.90;99.90
9810;DHT22;4944;52.514;13.192;2024-01-25T07:00:06;7.90;99.90
9810;DHT22;4944;52.514;13.192;2024-01-25T07:02:33;7.90;99.90
9810;DHT22;4944;52.514;13.192;2024-01-25T07:05:00;7.90;99.90
9810;DHT22;4944;52.514;13.192;2024-01-25T07:07:28;7.90;99.90
9810;DHT22;4944;52.514;13.192;2024-01-25T07:09:55;7.90;99.90
9810;DHT22;4944;52.514;13.192;2024-01-25T07:12:22;7.90;99.90
9810;DHT22;4944;52.514;13.192;2024-01-25T07:14:50;7.90;99.90
9810;DHT22;4944;52.514;13.192;2024-01-25T07:17:17;7.90;99.90
9810;DHT22;4944;52.514;13.192;2024-01-25T07:19:44;7.90;99.90
9810;DHT22;4944;52.514;13.192;2024-01-25T07:22:10;7.90;99.90
9810;DHT22;4944;52.514;13.192;2024-01-25T07:24:40;7.90;99.90
9810;DHT22;4944;52.514;13.192;2024-01-25T07:27:07;7.90;99.90
9810;DHT22;4944;52.514;13.192;2024-01-25T07:29:35;7.90;99.90
9810;DHT22;4944;52.514;13.192;2024-01-25T07:32:04;7.90;99.90
9810;DHT22;4944;52.514;13.192;2024-01-25T07:34:31;7.90;99.90
9810;DHT22;4944;52.514;13.192;2024-01-25T07:36:58;7.90;99.90
9810;DHT22;4944;52.514;13.192;2024-01-25T07:39:24;7.90;99.90
9810;DHT22;4944;52.514;13.192;2024-01-25T07:41:51;7.90;99.90
9810;DHT22;4944;52.514;13.192;2024-01-25T07:44:18;7.80;99.90
9810;DHT22;4944;52.514;13.192;2024-01-25T07:46:45;7.90;99.90
9810;DHT22;4944;52.514;13.192;2024-01-25T07:49:14;7.80;99.90
9810;DHT22;4944;52.514;13.192;2024-01-25T07:51:41;7.90;99.90
9810;DHT22;4944;52.514;13.192;2024-01-25T07:54:08;7.90;99.90
9810;DHT22;4944;52.514;13.192;2024-01-25T07:56:35;7.90;99.90
9810;DHT22;4944;52.514;13.192;2024-01-25T07:59:01;7.80;99.90
9810;DHT22;4944;52.514;13.192;2024-01-25T08:01:28;7.80;99.90
9810;DHT22;4944;52.514;13.192;2024-01-25T08:03:55;7.80;99.90
9810;DHT22;4944;52.514;13.192;2024-01-25T08:06:23;7.90;99.90
9810;DHT22;4944;52.514;13.192;2024-01-25T08:08:51;7.80;99.90
9810;DHT22;4944;52.514;13.192;2024-01-25T08:11:18;7.90;99.90
9810;DHT22;4944;52.514;13.192;2024-01-25T08:13:45;7.80;99.90
9810;DHT22;4944;52.514;13.192;2024-01-25T08:16:13;7.80;99.90
9810;DHT22;4944;52.514;13.192;2024-01-25T08:18:44;7.80;99.90
9810;DHT22;4944;52.514;13.192;2024-01-25T08:21:12;7.80;99.90
9810;DHT22;4944;52.514;13.192;2024-01-25T08:23:40;7.80;99.90
9810;DHT22;4944;52.514;13.192;2024-01-25T08:26:07;7.90;99.90
9810;DHT22;4944;52.514;13.192;2024-01-25T08:28:35;7.80;99.90
9810;DHT22;4944;52.514;13.192;2024-01-25T08:31:02;7.80;99.90
9810;DHT22;4944;52.514;13.192;2024-01-25T08:33:30;7.80;99.90
9810;DHT22;4944;52.514;13.192;2024-01-25T08:35:57;7.90;99.90
9810;DHT22;4944;52.514;13.192;2024-01-25T08:38:24;7.90;99.90
9810;DHT22;4944;52.514;13.192;2024-01-25T08:40:52;7.90;99.90
9810;DHT22;4944;52.514;13.192;2024-01-25T08:43:19;7.90;99.90
9810;DHT22;4944;52.514;13.192;2024-01-25T08:45:46;7.90;99.90
9810;DHT22;4944;52.514;13.192;2024-01-25T08:48:13;7.90;99.90
9810;DHT22;4944;52.514;13.192;2024-01-25T08:50:40;7.90;99.90
9810;DHT22;4944;52.514;13.192;2024-01-25T08:53:07;7.90;99.90
9810;DHT22;4944;52.514;13.192;2024-01-25T08:55:35;7.90;99.90
9810;DHT22;4944;52.514;13.192;2024-01-25T08:58:03;7.90;99.90
9810;DHT22;4944;52.514;13.192;2024-01-25T09:00:30;7.90;99.90
9810;DHT22;4944;52.514;13.192;2024-01-25T09:02:57;7.90;99.90
9810;DHT22;4944;52.514;13.192;2024-01-25T09:05:24;7.90;99.90
9810;DHT22;4944;52.514;13.192;2024-01-25T09:07:53;7.90;99.90
9810;DHT22;4944;52.514;13.192;2024-01-25T09:10:20;7.90;99.90
9810;DHT22;4944;52.514;13.192;2024-01-25T09:12:47;7.90;99.90
9810;DHT22;4944;52.514;13.192;2024-01-25T09:15:15;8.00;99.90
9810;DHT22;4944;52.514;13.192;2024-01-25T09:17:42;7.90;99.90
9810;DHT22;4944;52.514;13.192;2024-01-25T09:20:11;7.90;99.90
9810;DHT22;4944;52.514;13.192;2024-01-25T09:22:37;8.00;99.90
9810;DHT22;4944;52.514;13.192;2024-01-25T09:25:05;8.00;99.90
9810;DHT22;4944;52.514;13.192;2024-01-25T09:27:33;8.00;99.90
9810;DHT22;4944;52.514;13.192;2024-01-25T09:29:59;8.00;99.90
9810;DHT22;4944;52.514;13.192;2024-01-25T09:32:28;8.00;99.90
9810;DHT22;4944;52.514;13.192;2024-01-25T09:34:55;8.00;99.90
9810;DHT22;4944;52.514;13.192;2024-01-25T09:37:21;8.00;99.90
9810;DHT22;4944;52.514;13.192;2024-01-25T09:39:49;7.90;99.90
9810;DHT22;4944;52.514;13.192;2024-01-25T09:42:17;8.00;99.90
9810;DHT22;4944;52.514;13.192;2024-01-25T09:44:44;7.90;99.90
9810;DHT22;4944;52.514;13.192;2024-01-25T09:47:11;8.00;99.90
9810;DHT22;4944;52.514;13.192;2024-01-25T09:49:41;8.00;99.90
9810;DHT22;4944;52.514;13.192;2024-01-25T09:52:11;8.00;99.90
9810;DHT22;4944;52.514;13.192;2024-01-25T09:54:39;7.90;99.90
9810;DHT22;4944;52.514;13.192;2024-01-25T09:57:14;8.00;99.90
9810;DHT22;4944;52.514;13.192;2024-01-25T09:59:42;8.00;99.90
9810;DHT22;4944;52.514;13.192;2024-01-25T10:02:09;7.90;99.90
9810;DHT22;4944;52.514;13.192;2024-01-25T10:04:37;7.90;99.90
9810;DHT22;4944;52.514;13.192;2024-01-25T10:07:05;7.90;99.90
9810;DHT22;4944;52.514;13.192;2024-01-25T10:09:38;8.00;99.90
9810;DHT22;4944;52.514;13.192;2024-01-25T10:12:06;7.90;99.90
9810;DHT22;4944;52.514;13.192;2024-01-25T10:14:33;8.00;99.90
9810;DHT22;4944;52.514;13.192;2024-01-25T10:17:00;8.00;99.90
9810;DHT22;4944;52.514;13.192;2024-01-25T10:19:28;8.00;99.90
9810;DHT22;4944;52.514;13.192;2024-01-25T10:21:56;8.00;99.90
9810;DHT22;4944;52.514;13.192;2024-01-25T10:24:24;8.00;99.90
9810;DHT22;4944;52.514;13.192;2024-01-25T10:26:51;8.00;99.90
9810;DHT22;4944;52.514;13.192;2024-01-25T10:29:18;8.10;99.90
9810;DHT22;4944;52.514;13.192;2024-01-25T10:31:45;8.10;99.90
9810;DHT22;4944;52.514;13.192;2024-01-25T10:34:13;8.10;99.90
9810;DHT22;4944;52.514;13.192;2024-01-25T10:36:42;8.10;99.90
9810;DHT22;4944;52.514;13.192;2024-01-25T10:39:09;8.10;99.90
9810;DHT22;4944;52.514;13.192;2024-01-25T10:41:38;8.10;99.90
9810;DHT22;4944;52.514;13.192;2024-01-25T10:44:06;8.20;99.90
9810;DHT22;4944;52.514;13.192;2024-01-25T10:46:34;8.20;99.90
9810;DHT22;4944;52.514;13.192;2024-01-25T10:49:02;8.20;99.90
9810;DHT22;4944;52.514;13.192;2024-01-25T10:51:29;8.20;99.90
9810;DHT22;4944;52.514;13.192;2024-01-25T10:53:57;8.20;99.90
9810;DHT22;4944;52.514;13.192;2024-01-25T10:56:25;8.20;99.90
9810;DHT22;4944;52.514;13.192;2024-01-25T10:58:53;8.20;99.90
9810;DHT22;4944;52.514;13.192;2024-01-25T11:01:20;8.30;99.90
9810;DHT22;4944;52.514;13.192;2024-01-25T11:03:47;8.20;99.90
9810;DHT22;4944;52.514;13.192;2024-01-25T11:06:14;8.20;99.90
9810;DHT22;4944;52.514;13.192;2024-01-25T11:08:41;8.30;99.90
9810;DHT22;4944;52.514;13.192;2024-01-25T11:11:10;8.30;99.90
9810;DHT22;4944;52.514;13.192;2024-01-25T11:13:39;8.30;99.90
9810;DHT22;4944;52.514;13.192;2024-01-25T11:16:15;8.30;99.90
9810;DHT22;4944;52.514;13.192;2024-01-25T11:18:49;8.30;99.90
9810;DHT22;4944;52.514;13.192;2024-01-25T11:21:26;8.30;99.90
9810;DHT22;4944;52.514;13.192;2024-01-25T11:24:00;8.30;99.90
9810;DHT22;4944;52.514;13.192;2024-01-25T11:26:28;8.30;99.90
9810;DHT22;4944;52.514;13.192;2024-01-25T11:28:55;8.30;99.90
9810;DHT22;4944;52.514;13.192;2024-01-25T11:31:27;8.40;99.90
9810;DHT22;4944;52.514;13.192;2024-01-25T11:33:57;8.40;99.90
9810;DHT22;4944;52.514;13.192;2024-01-25T11:36:24;8.40;99.90
9810;DHT22;4944;52.514;13.192;2024-01-25T11:38:51;8.40;99.90
9810;DHT22;4944;52.514;13.192;2024-01-25T11:41:18;8.40;99.90
9810;DHT22;4944;52.514;13.192;2024-01-25T11:43:47;8.40;99.90
9810;DHT22;4944;52.514;13.192;2024-01-25T11:46:14;8.40;99.90
9810;DHT22;4944;52.514;13.192;2024-01-25T11:48:43;8.40;99.90
9810;DHT22;4944;52.514;13.192;2024-01-25T11:51:10;8.40;99.90
9810;DHT22;4944;52.514;13.192;2024-01-25T11:53:37;8.40;99.90
9810;DHT22;4944;52.514;13.192;2024-01-25T11:56:07;8.40;99.90
9810;DHT22;4944;52.514;13.192;2024-01-25T11:58:36;8.40;99.90
9810;DHT22;4944;52.514;13.192;2024-01-25T12:01:03;8.50;99.90
9810;DHT22;4944;52.514;13.192;2024-01-25T12:03:33;8.50;99.90
9810;DHT22;4944;52.514;13.192;2024-01-25T12:06:03;8.60;99.90
9810;DHT22;4944;52.514;13.192;2024-01-25T12:08:32;8.70;99.90
9810;DHT22;4944;52.514;13.192;2024-01-25T12:11:03;8.70;99.90
9810;DHT22;4944;52.514;13.192;2024-01-25T12:13:34;8.70;99.90
9810;DHT22;4944;52.514;13.192;2024-01-25T12:16:02;8.70;99.90
9810;DHT22;4944;52.514;13.192;2024-01-25T12:18:30;8.60;99.90
9810;DHT22;4944;52.514;13.192;2024-01-25T12:20:59;8.60;99.90
9810;DHT22;4944;52.514;13.192;2024-01-25T12:23:35;8.60;99.90
9810;DHT22;4944;52.514;13.192;2024-01-25T12:26:03;8.60;99.90
9810;DHT22;4944;52.514;13.192;2024-01-25T12:28:30;8.60;99.90
9810;DHT22;4944;52.514;13.192;2024-01-25T12:30:58;8.70;99.90
9810;DHT22;4944;52.514;13.192;2024-01-25T12:33:25;8.70;99.90
9810;DHT22;4944;52.514;13.192;2024-01-25T12:35:52;8.70;99.90
9810;DHT22;4944;52.514;13.192;2024-01-25T12:38:20;8.70;99.90
9810;DHT22;4944;52.514;13.192;2024-01-25T12:40:49;8.70;99.90
9810;DHT22;4944;52.514;13.192;2024-01-25T12:43:16;8.70;99.90
9810;DHT22;4944;52.514;13.192;2024-01-25T12:45:43;8.80;99.90
9810;DHT22;4944;52.514;13.192;2024-01-25T12:48:11;9.10;99.90
9810;DHT22;4944;52.514;13.192;2024-01-25T12:50:38;9.30;99.90
9810;DHT22;4944;52.514;13.192;2024-01-25T12:53:05;9.40;99.90
9810;DHT22;4944;52.514;13.192;2024-01-25T12:55:33;9.30;99.90
9810;DHT22;4944;52.514;13.192;2024-01-25T12:58:02;9.30;99.90
9810;DHT22;4944;52.514;13.192;2024-01-25T13:00:29;9.30;99.90
9810;DHT22;4944;52.514;13.192;2024-01-25T13:02:56;9.40;99.90
9810;DHT22;4944;52.514;13.192;2024-01-25T13:05:23;9.40;99.90
9810;DHT22;4944;52.514;13.192;2024-01-25T13:07:50;9.40;99.90
9810;DHT22;4944;52.514;13.192;2024-01-25T13:10:17;9.30;99.90
9810;DHT22;4944;52.514;13.192;2024-01-25T13:12:44;9.20;99.90
9810;DHT22;4944;52.514;13.192;2024-01-25T13:15:12;9.00;99.90
9810;DHT22;4944;52.514;13.192;2024-01-25T13:17:40;9.10;99.90
9810;DHT22;4944;52.514;13.192;2024-01-25T13:20:07;9.00;99.90
9810;DHT22;4944;52.514;13.192;2024-01-25T13:22:35;9.00;99.90
9810;DHT22;4944;52.514;13.192;2024-01-25T13:25:03;8.90;99.90
9810;DHT22;4944;52.514;13.192;2024-01-25T13:27:31;8.90;99.90
9810;DHT22;4944;52.514;13.192;2024-01-25T13:29:58;8.90;99.90
9810;DHT22;4944;52.514;13.192;2024-01-25T13:32:25;8.90;99.90
9810;DHT22;4944;52.514;13.192;2024-01-25T13:34:52;8.80;99.90
9810;DHT22;4944;52.514;13.192;2024-01-25T13:37:19;8.90;99.90
9810;DHT22;4944;52.514;13.192;2024-01-25T13:39:46;8.80;99.90
9810;DHT22;4944;52.514;13.192;2024-01-25T13:42:12;8.80;99.90
9810;DHT22;4944;52.514;13.192;2024-01-25T13:44:39;8.80;99.90
9810;DHT22;4944;52.514;13.192;2024-01-25T13:47:06;8.70;99.90
9810;DHT22;4944;52.514;13.192;2024-01-25T13:49:35;8.70;99.90
9810;DHT22;4944;52.514;13.192;2024-01-25T13:52:02;8.70;99.90
9810;DHT22;4944;52.514;13.192;2024-01-25T13:54:29;8.70;99.90
9810;DHT22;4944;52.514;13.192;2024-01-25T13:56:56;8.70;99.90
9810;DHT22;4944;52.514;13.192;2024-01-25T13:59:23;8.70;99.90
9810;DHT22;4944;52.514;13.192;2024-01-25T14:01:51;8.70;99.90
9810;DHT22;4944;52.514;13.192;2024-01-25T14:04:18;8.70;99.90
9810;DHT22;4944;52.514;13.192;2024-01-25T14:06:46;8.70;99.90
9810;DHT22;4944;52.514;13.192;2024-01-25T14:09:13;8.70;99.90
9810;DHT22;4944;52.514;13.192;2024-01-25T14:11:40;8.60;99.90
9810;DHT22;4944;52.514;13.192;2024-01-25T14:14:07;8.60;99.90
9810;DHT22;4944;52.514;13.192;2024-01-25T14:16:34;8.60;99.90
9810;DHT22;4944;52.514;13.192;2024-01-25T14:19:01;8.60;99.90
9810;DHT22;4944;52.514;13.192;2024-01-25T14:21:29;8.50;99.90
9810;DHT22;4944;52.514;13.192;2024-01-25T14:23:57;8.50;99.90
9810;DHT22;4944;52.514;13.192;2024-01-25T14:26:25;8.50;99.90
9810;DHT22;4944;52.514;13.192;2024-01-25T14:28:52;8.50;99.90
9810;DHT22;4944;52.514;13.192;2024-01-25T14:31:18;8.50;99.90
9810;DHT22;4944;52.514;13.192;2024-01-25T14:33:46;8.40;99.90
9810;DHT22;4944;52.514;13.192;2024-01-25T14:36:13;8.40;99.90
9810;DHT22;4944;52.514;13.192;2024-01-25T14:38:40;8.40;99.90
9810;DHT22;4944;52.514;13.192;2024-01-25T14:41:09;8.40;99.90
9810;DHT22;4944;52.514;13.192;2024-01-25T14:43:37;8.40;99.90
9810;DHT22;4944;52.514;13.192;2024-01-25T14:46:05;8.40;99.90
9810;DHT22;4944;52.514;13.192;2024-01-25T14:48:32;8.30;99.90
9810;DHT22;4944;52.514;13.192;2024-01-25T14:50:59;8.30;99.90
9810;DHT22;4944;52.514;13.192;2024-01-25T14:53:26;8.40;99.90
9810;DHT22;4944;52.514;13.192;2024-01-25T14:55:53;8.30;99.90
9810;DHT22;4944;52.514;13.192;2024-01-25T14:58:21;8.30;99.90
9810;DHT22;4944;52.514;13.192;2024-01-25T15:00:49;8.40;99.90
9810;DHT22;4944;52.514;13.192;2024-01-25T15:03:16;8.30;99.90
9810;DHT22;4944;52.514;13.192;2024-01-25T15:05:43;8.30;99.90
9810;DHT22;4944;52.514;13.192;2024-01-25T15:08:10;8.30;99.90
9810;DHT22;4944;52.514;13.192;2024-01-25T15:10:37;8.30;99.90
9810;DHT22;4944;52.514;13.192;2024-01-25T15:13:04;8.30;99.90
9810;DHT22;4944;52.514;13.192;2024-01-25T15:15:33;8.30;99.90
9810;DHT22;4944;52.514;13.192;2024-01-25T15:17:59;8.30;99.90
9810;DHT22;4944;52.514;13.192;2024-01-25T15:20:27;8.30;99.90
9810;DHT22;4944;52.514;13.192;2024-01-25T15:22:54;8.30;99.90
9810;DHT22;4944;52.514;13.192;2024-01-25T15:25:23;8.20;99.90
9810;DHT22;4944;52.514;13.192;2024-01-25T15:27:52;8.20;99.90
9810;DHT22;4944;52.514;13.192;2024-01-25T15:30:19;8.20;99.90
9810;DHT22;4944;52.514;13.192;2024-01-25T15:32:47;8.20;99.90
9810;DHT22;4944;52.514;13.192;2024-01-25T15:35:14;8.20;99.90
9810;DHT22;4944;52.514;13.192;2024-01-25T15:37:41;8.20;99.90
9810;DHT22;4944;52.514;13.192;2024-01-25T15:40:08;8.10;99.90
9810;DHT22;4944;52.514;13.192;2024-01-25T15:42:38;8.10;99.90
9810;DHT22;4944;52.514;13.192;2024-01-25T15:45:06;8.10;99.90
9810;DHT22;4944;52.514;13.192;2024-01-25T15:47:34;8.10;99.90
9810;DHT22;4944;52.514;13.192;2024-01-25T15:50:03;8.10;99.90
9810;DHT22;4944;52.514;13.192;2024-01-25T15:52:31;8.10;99.90
9810;DHT22;4944;52.514;13.192;2024-01-25T15:54:58;8.00;99.90
9810;DHT22;4944;52.514;13.192;2024-01-25T15:57:25;8.00;99.90
9810;DHT22;4944;52.514;13.192;2024-01-25T15:59:52;8.00;99.90
9810;DHT22;4944;52.514;13.192;2024-01-25T16:02:19;8.00;99.90
9810;DHT22;4944;52.514;13.192;2024-01-25T16:04:46;8.00;99.90